Mihai Viteazu, Rumänien

12:54 AM EEST am 29. April 2017 (GMT +0300)
M. Kogalniceanu | | Change Station

Höhe 335 ft 44.33 °N, 28.43 °E | Updated 24 minutes ago

Teils Wolkig
Teils Wolkig
45 °F
gefühlte 41 °F
N
7
Wind Wechselnd Wind aus Südost

Heute
Max. -- | schwach -- °F
--% Regenrisiko
Gestern
Max. -- | schwach -- °F
Precip. -- inch
Druck 29.95 inch
Sichtweite 0.1 Meilen
Wolken Bedeckt 100 ft
Windchill 41 °F
Taupunkt 43 °F
Feuchtigkeit 93%
Regen 0.00 inch
Schneehöhe Nicht verfügbar..
5:58 AM 8:07 PM
Erstes Viertel, 9% visible
METAR LRCK 282130Z 13006KT 0200 R36/0550V0800U FG OVC001 07/06 Q1014 NOSIG
Druck 29.95 inch
Sichtweite 0.1 Meilen
Wolken Bedeckt 100 ft
Windchill 41 °F
Taupunkt 43 °F
Feuchtigkeit 93%
Regen 0.00 inch
Schneehöhe Nicht verfügbar..
5:58 AM 8:07 PM
Erstes Viertel, 9% visible
METAR LRCK 282130Z 13006KT 0200 R36/0550V0800U FG OVC001 07/06 Q1014 NOSIG

Get Severe Weather Alerts

Thanks for signing up!

Be on the lookout for a verification email in your inbox.

You'll start receiving the daily forecast at 8 AM.

×

10-Day Weather Forecast

×

Almanac

Astronomie

Apr. 29, 2017 Aufgang Untergang
Genaue Zeit
Bürgerliche Dämmerung
Nautische Dämmerung
Astronomische Dämmerung
Mond
Länge des sichtbaren Lichts
Tageslänge
Tomorrow will be .
, % of the Moon is Illuminated

Heutige Rekorde

Country Highs Country Lows

Community

WunderPhotos

WunderBlog® & News

Nearby

Luftqualität

  Luftqualität LQ Index Schadstoff
Not available.

Schneehöhe

Station Depth Höhe

Erdbebenaktivität

Stadt Distance Mag. Time & Date
Minimum magnitude displayed is 2.5.

küstennahe Wassertemperaturen

Ort Temperatur

Stations

Wetterstationen in der Umgebung

Stationsstandort Temp. Windchill Taupunkt Feuchtigkeit Wind Precip. Höhe Aktualisiert Art